sensor_id;sensor_type;location;lat;lon;timestamp;pressure;altitude;pressure_sealevel;temperature;humidity
65394;BME280;52002;49.760;6.512;2023-12-20T00:01:02;100127.83;;;5.72;90.10
65394;BME280;52002;49.760;6.512;2023-12-20T00:03:27;100121.58;;;5.73;89.74
65394;BME280;52002;49.760;6.512;2023-12-20T00:05:52;100124.40;;;5.73;89.90
65394;BME280;52002;49.760;6.512;2023-12-20T00:08:18;100127.30;;;5.74;90.13
65394;BME280;52002;49.760;6.512;2023-12-20T00:10:44;100127.64;;;5.74;89.74
65394;BME280;52002;49.760;6.512;2023-12-20T00:13:09;100127.40;;;5.76;89.71
65394;BME280;52002;49.760;6.512;2023-12-20T00:15:35;100127.42;;;5.78;89.61
65394;BME280;52002;49.760;6.512;2023-12-20T00:18:00;100129.44;;;5.79;89.97
65394;BME280;52002;49.760;6.512;2023-12-20T00:20:26;100126.86;;;5.81;89.68
65394;BME280;52002;49.760;6.512;2023-12-20T00:22:54;100129.62;;;5.79;89.55
65394;BME280;52002;49.760;6.512;2023-12-20T00:25:19;100130.71;;;5.79;89.98
65394;BME280;52002;49.760;6.512;2023-12-20T00:27:45;100129.80;;;5.79;89.59
65394;BME280;52002;49.760;6.512;2023-12-20T00:30:10;100125.08;;;5.78;89.19
65394;BME280;52002;49.760;6.512;2023-12-20T00:32:36;100124.77;;;5.78;89.28
65394;BME280;52002;49.760;6.512;2023-12-20T00:35:01;100123.24;;;5.77;89.36
65394;BME280;52002;49.760;6.512;2023-12-20T00:37:27;100123.09;;;5.76;89.23
65394;BME280;52002;49.760;6.512;2023-12-20T00:39:52;100116.87;;;5.77;89.83
65394;BME280;52002;49.760;6.512;2023-12-20T00:42:18;100113.80;;;5.78;89.39
65394;BME280;52002;49.760;6.512;2023-12-20T00:44:43;100109.72;;;5.78;89.58
65394;BME280;52002;49.760;6.512;2023-12-20T00:47:09;100119.04;;;5.79;89.47
65394;BME280;52002;49.760;6.512;2023-12-20T00:49:34;100122.37;;;5.80;89.39
65394;BME280;52002;49.760;6.512;2023-12-20T00:51:59;100121.68;;;5.79;89.24
65394;BME280;52002;49.760;6.512;2023-12-20T00:54:25;100119.92;;;5.79;89.65
65394;BME280;52002;49.760;6.512;2023-12-20T00:56:50;100127.53;;;5.81;89.79
65394;BME280;52002;49.760;6.512;2023-12-20T00:59:16;100127.71;;;5.84;89.94
65394;BME280;52002;49.760;6.512;2023-12-20T01:01:43;100122.70;;;5.85;89.88
65394;BME280;52002;49.760;6.512;2023-12-20T01:04:08;100131.55;;;5.85;89.95
65394;BME280;52002;49.760;6.512;2023-12-20T01:06:34;100134.27;;;5.84;89.57
65394;BME280;52002;49.760;6.512;2023-12-20T01:08:59;100136.11;;;5.82;89.57
65394;BME280;52002;49.760;6.512;2023-12-20T01:11:24;100132.07;;;5.80;89.57
65394;BME280;52002;49.760;6.512;2023-12-20T01:13:50;100126.08;;;5.77;89.07
65394;BME280;52002;49.760;6.512;2023-12-20T01:16:15;100122.07;;;5.76;89.20
65394;BME280;52002;49.760;6.512;2023-12-20T01:18:40;100123.28;;;5.73;89.29
65394;BME280;52002;49.760;6.512;2023-12-20T01:21:06;100119.49;;;5.72;89.32
65394;BME280;52002;49.760;6.512;2023-12-20T01:23:32;100118.31;;;5.71;89.09
65394;BME280;52002;49.760;6.512;2023-12-20T01:25:59;100124.27;;;5.70;89.59
65394;BME280;52002;49.760;6.512;2023-12-20T01:28:28;100127.69;;;5.68;89.43
65394;BME280;52002;49.760;6.512;2023-12-20T01:30:53;100117.51;;;5.68;89.73
65394;BME280;52002;49.760;6.512;2023-12-20T01:33:19;100118.90;;;5.68;89.52
65394;BME280;52002;49.760;6.512;2023-12-20T01:35:44;100115.38;;;5.70;89.80
65394;BME280;52002;49.760;6.512;2023-12-20T01:38:09;100123.73;;;5.72;90.22
65394;BME280;52002;49.760;6.512;2023-12-20T01:40:35;100133.62;;;5.72;89.61
65394;BME280;52002;49.760;6.512;2023-12-20T01:43:01;100140.24;;;5.73;90.09
65394;BME280;52002;49.760;6.512;2023-12-20T01:45:27;100137.50;;;5.75;90.22
65394;BME280;52002;49.760;6.512;2023-12-20T01:47:54;100125.94;;;5.76;89.89
65394;BME280;52002;49.760;6.512;2023-12-20T01:50:21;100128.79;;;5.79;89.98
65394;BME280;52002;49.760;6.512;2023-12-20T01:52:47;100130.29;;;5.80;90.13
65394;BME280;52002;49.760;6.512;2023-12-20T01:55:13;100125.37;;;5.79;89.88
65394;BME280;52002;49.760;6.512;2023-12-20T01:57:41;100127.98;;;5.77;89.75
65394;BME280;52002;49.760;6.512;2023-12-20T02:00:09;100133.99;;;5.77;89.57
65394;BME280;52002;49.760;6.512;2023-12-20T02:02:37;100131.77;;;5.76;89.67
65394;BME280;52002;49.760;6.512;2023-12-20T02:05:05;100137.63;;;5.76;89.49
65394;BME280;52002;49.760;6.512;2023-12-20T02:07:31;100139.21;;;5.73;89.55
65394;BME280;52002;49.760;6.512;2023-12-20T02:09:56;100140.69;;;5.72;89.76
65394;BME280;52002;49.760;6.512;2023-12-20T02:12:26;100141.90;;;5.72;89.86
65394;BME280;52002;49.760;6.512;2023-12-20T02:14:51;100148.78;;;5.72;89.59
65394;BME280;52002;49.760;6.512;2023-12-20T02:17:17;100150.71;;;5.73;89.82
65394;BME280;52002;49.760;6.512;2023-12-20T02:19:43;100154.66;;;5.72;89.59
65394;BME280;52002;49.760;6.512;2023-12-20T02:22:11;100158.46;;;5.73;89.90
65394;BME280;52002;49.760;6.512;2023-12-20T02:24:38;100162.04;;;5.75;89.90
65394;BME280;52002;49.760;6.512;2023-12-20T02:27:05;100164.17;;;5.77;90.15
65394;BME280;52002;49.760;6.512;2023-12-20T02:29:35;100163.84;;;5.80;90.29
65394;BME280;52002;49.760;6.512;2023-12-20T02:32:01;100164.41;;;5.79;90.04
65394;BME280;52002;49.760;6.512;2023-12-20T02:34:27;100155.91;;;5.80;89.93
65394;BME280;52002;49.760;6.512;2023-12-20T02:36:52;100152.38;;;5.80;90.02
65394;BME280;52002;49.760;6.512;2023-12-20T02:39:19;100156.45;;;5.80;89.92
65394;BME280;52002;49.760;6.512;2023-12-20T02:41:44;100157.58;;;5.76;89.20
65394;BME280;52002;49.760;6.512;2023-12-20T02:44:09;100155.02;;;5.72;89.10
65394;BME280;52002;49.760;6.512;2023-12-20T02:46:35;100166.16;;;5.69;89.22
65394;BME280;52002;49.760;6.512;2023-12-20T02:49:00;100169.89;;;5.66;89.32
65394;BME280;52002;49.760;6.512;2023-12-20T02:51:25;100161.86;;;5.64;89.51
65394;BME280;52002;49.760;6.512;2023-12-20T02:53:51;100164.23;;;5.60;89.06
65394;BME280;52002;49.760;6.512;2023-12-20T02:56:16;100175.92;;;5.54;89.56
65394;BME280;52002;49.760;6.512;2023-12-20T02:58:41;100183.27;;;5.47;89.25
65394;BME280;52002;49.760;6.512;2023-12-20T03:01:07;100180.23;;;5.39;89.54
65394;BME280;52002;49.760;6.512;2023-12-20T03:03:32;100180.84;;;5.33;89.50
65394;BME280;52002;49.760;6.512;2023-12-20T03:05:58;100189.23;;;5.26;89.35
65394;BME280;52002;49.760;6.512;2023-12-20T03:08:23;100203.30;;;5.18;89.47
65394;BME280;52002;49.760;6.512;2023-12-20T03:10:49;100208.16;;;5.14;89.99
65394;BME280;52002;49.760;6.512;2023-12-20T03:13:15;100199.80;;;5.10;89.91
65394;BME280;52002;49.760;6.512;2023-12-20T03:15:40;100199.70;;;5.05;90.20
65394;BME280;52002;49.760;6.512;2023-12-20T03:18:06;100216.61;;;4.99;89.69
65394;BME280;52002;49.760;6.512;2023-12-20T03:20:31;100217.35;;;4.94;89.47
65394;BME280;52002;49.760;6.512;2023-12-20T03:23:00;100218.88;;;4.92;89.85
65394;BME280;52002;49.760;6.512;2023-12-20T03:25:26;100225.46;;;4.91;89.77
65394;BME280;52002;49.760;6.512;2023-12-20T03:27:52;100236.07;;;4.87;89.86
65394;BME280;52002;49.760;6.512;2023-12-20T03:30:18;100246.81;;;4.85;89.66
65394;BME280;52002;49.760;6.512;2023-12-20T03:32:43;100246.16;;;4.84;89.37
65394;BME280;52002;49.760;6.512;2023-12-20T03:35:09;100245.23;;;4.84;89.87
65394;BME280;52002;49.760;6.512;2023-12-20T03:37:34;100247.83;;;4.85;89.79
65394;BME280;52002;49.760;6.512;2023-12-20T03:40:00;100255.48;;;4.84;89.88
65394;BME280;52002;49.760;6.512;2023-12-20T03:42:26;100259.45;;;4.83;89.72
65394;BME280;52002;49.760;6.512;2023-12-20T03:44:51;100253.75;;;4.81;90.05
65394;BME280;52002;49.760;6.512;2023-12-20T03:47:16;100252.34;;;4.81;89.76
65394;BME280;52002;49.760;6.512;2023-12-20T03:49:42;100259.16;;;4.79;89.60
65394;BME280;52002;49.760;6.512;2023-12-20T03:52:07;100258.98;;;4.76;89.49
65394;BME280;52002;49.760;6.512;2023-12-20T03:54:34;100255.82;;;4.76;89.41
65394;BME280;52002;49.760;6.512;2023-12-20T03:57:00;100260.60;;;4.72;89.26
65394;BME280;52002;49.760;6.512;2023-12-20T03:59:25;100268.41;;;4.68;89.09
65394;BME280;52002;49.760;6.512;2023-12-20T04:01:50;100267.66;;;4.66;88.98
65394;BME280;52002;49.760;6.512;2023-12-20T04:04:16;100262.40;;;4.63;89.11
65394;BME280;52002;49.760;6.512;2023-12-20T04:06:41;100261.77;;;4.59;89.12
65394;BME280;52002;49.760;6.512;2023-12-20T04:09:07;100266.41;;;4.55;89.01
65394;BME280;52002;49.760;6.512;2023-12-20T04:11:34;100262.08;;;4.48;88.60
65394;BME280;52002;49.760;6.512;2023-12-20T04:14:00;100252.38;;;4.45;88.63
65394;BME280;52002;49.760;6.512;2023-12-20T04:16:26;100242.14;;;4.42;88.71
65394;BME280;52002;49.760;6.512;2023-12-20T04:18:51;100249.83;;;4.37;88.28
65394;BME280;52002;49.760;6.512;2023-12-20T04:21:17;100257.36;;;4.29;88.11
65394;BME280;52002;49.760;6.512;2023-12-20T04:23:43;100260.16;;;4.23;88.45
65394;BME280;52002;49.760;6.512;2023-12-20T04:26:09;100259.87;;;4.16;88.23
65394;BME280;52002;49.760;6.512;2023-12-20T04:28:34;100261.19;;;4.15;88.32
65394;BME280;52002;49.760;6.512;2023-12-20T04:30:59;100267.55;;;4.11;88.55
65394;BME280;52002;49.760;6.512;2023-12-20T04:33:25;100270.27;;;4.03;88.04
65394;BME280;52002;49.760;6.512;2023-12-20T04:35:50;100272.14;;;3.98;88.34
65394;BME280;52002;49.760;6.512;2023-12-20T04:38:16;100274.53;;;3.99;88.60
65394;BME280;52002;49.760;6.512;2023-12-20T04:40:42;100265.50;;;4.00;88.90
65394;BME280;52002;49.760;6.512;2023-12-20T04:43:07;100275.16;;;4.04;89.21
65394;BME280;52002;49.760;6.512;2023-12-20T04:45:34;100274.14;;;4.06;89.28
65394;BME280;52002;49.760;6.512;2023-12-20T04:47:59;100274.77;;;4.08;89.02
65394;BME280;52002;49.760;6.512;2023-12-20T04:50:25;100278.17;;;4.10;89.28
65394;BME280;52002;49.760;6.512;2023-12-20T04:52:50;100280.95;;;4.10;89.21
65394;BME280;52002;49.760;6.512;2023-12-20T04:55:16;100289.74;;;4.11;88.90
65394;BME280;52002;49.760;6.512;2023-12-20T04:57:42;100290.35;;;4.13;89.00
65394;BME280;52002;49.760;6.512;2023-12-20T05:00:08;100295.80;;;4.13;89.07
65394;BME280;52002;49.760;6.512;2023-12-20T05:02:35;100299.12;;;4.14;88.86
65394;BME280;52002;49.760;6.512;2023-12-20T05:05:01;100303.64;;;4.15;88.99
65394;BME280;52002;49.760;6.512;2023-12-20T05:07:26;100306.21;;;4.16;88.86
65394;BME280;52002;49.760;6.512;2023-12-20T05:09:51;100304.97;;;4.13;88.56
65394;BME280;52002;49.760;6.512;2023-12-20T05:12:17;100310.27;;;4.12;88.76
65394;BME280;52002;49.760;6.512;2023-12-20T05:14:42;100311.29;;;4.13;88.83
65394;BME280;52002;49.760;6.512;2023-12-20T05:17:07;100314.94;;;4.14;88.91
65394;BME280;52002;49.760;6.512;2023-12-20T05:19:33;100317.19;;;4.11;88.57
65394;BME280;52002;49.760;6.512;2023-12-20T05:22:01;100316.99;;;4.09;88.40
65394;BME280;52002;49.760;6.512;2023-12-20T05:24:27;100316.67;;;4.08;88.61
65394;BME280;52002;49.760;6.512;2023-12-20T05:26:53;100320.95;;;4.10;88.82
65394;BME280;52002;49.760;6.512;2023-12-20T05:29:18;100315.23;;;4.12;88.83
65394;BME280;52002;49.760;6.512;2023-12-20T05:31:43;100311.96;;;4.10;88.70
65394;BME280;52002;49.760;6.512;2023-12-20T05:34:09;100310.77;;;4.10;88.75
65394;BME280;52002;49.760;6.512;2023-12-20T05:36:34;100317.84;;;4.12;89.12
65394;BME280;52002;49.760;6.512;2023-12-20T05:39:00;100323.80;;;4.16;89.22
65394;BME280;52002;49.760;6.512;2023-12-20T05:41:25;100326.73;;;4.17;89.21
65394;BME280;52002;49.760;6.512;2023-12-20T05:43:51;100330.05;;;4.18;89.06
65394;BME280;52002;49.760;6.512;2023-12-20T05:46:16;100325.95;;;4.19;89.06
65394;BME280;52002;49.760;6.512;2023-12-20T05:48:41;100330.00;;;4.19;88.83
65394;BME280;52002;49.760;6.512;2023-12-20T05:51:07;100331.73;;;4.16;88.58
65394;BME280;52002;49.760;6.512;2023-12-20T05:53:33;100332.83;;;4.15;88.72
65394;BME280;52002;49.760;6.512;2023-12-20T05:55:58;100334.88;;;4.17;88.89
65394;BME280;52002;49.760;6.512;2023-12-20T05:58:24;100335.75;;;4.17;88.77
65394;BME280;52002;49.760;6.512;2023-12-20T06:00:50;100335.54;;;4.17;88.79
65394;BME280;52002;49.760;6.512;2023-12-20T06:03:15;100336.45;;;4.20;89.09
65394;BME280;52002;49.760;6.512;2023-12-20T06:05:40;100338.17;;;4.21;89.01
65394;BME280;52002;49.760;6.512;2023-12-20T06:08:06;100336.95;;;4.21;89.01
65394;BME280;52002;49.760;6.512;2023-12-20T06:10:31;100335.02;;;4.23;89.14
65394;BME280;52002;49.760;6.512;2023-12-20T06:12:57;100346.40;;;4.25;89.09
65394;BME280;52002;49.760;6.512;2023-12-20T06:15:24;100356.55;;;4.26;89.15
65394;BME280;52002;49.760;6.512;2023-12-20T06:17:49;100355.53;;;4.28;88.99
65394;BME280;52002;49.760;6.512;2023-12-20T06:20:15;100352.00;;;4.28;89.00
65394;BME280;52002;49.760;6.512;2023-12-20T06:22:40;100352.05;;;4.31;89.03
65394;BME280;52002;49.760;6.512;2023-12-20T06:25:06;100352.38;;;4.31;88.84
65394;BME280;52002;49.760;6.512;2023-12-20T06:27:32;100344.05;;;4.32;89.10
65394;BME280;52002;49.760;6.512;2023-12-20T06:29:58;100340.35;;;4.32;88.79
65394;BME280;52002;49.760;6.512;2023-12-20T06:32:24;100348.68;;;4.34;89.20
65394;BME280;52002;49.760;6.512;2023-12-20T06:34:50;100348.92;;;4.36;89.24
65394;BME280;52002;49.760;6.512;2023-12-20T06:37:15;100345.31;;;4.37;89.00
65394;BME280;52002;49.760;6.512;2023-12-20T06:39:41;100344.39;;;4.38;88.94
65394;BME280;52002;49.760;6.512;2023-12-20T06:42:06;100340.72;;;4.37;88.78
65394;BME280;52002;49.760;6.512;2023-12-20T06:44:32;100338.45;;;4.37;88.76
65394;BME280;52002;49.760;6.512;2023-12-20T06:46:57;100342.49;;;4.37;88.87
65394;BME280;52002;49.760;6.512;2023-12-20T06:49:23;100350.68;;;4.39;88.87
65394;BME280;52002;49.760;6.512;2023-12-20T06:51:48;100352.70;;;4.41;89.05
65394;BME280;52002;49.760;6.512;2023-12-20T06:54:14;100348.77;;;4.42;89.02
65394;BME280;52002;49.760;6.512;2023-12-20T06:56:39;100342.06;;;4.45;89.11
65394;BME280;52002;49.760;6.512;2023-12-20T06:59:06;100337.83;;;4.48;88.95
65394;BME280;52002;49.760;6.512;2023-12-20T07:01:31;100342.35;;;4.49;88.99
65394;BME280;52002;49.760;6.512;2023-12-20T07:03:57;100339.58;;;4.52;89.20
65394;BME280;52002;49.760;6.512;2023-12-20T07:06:22;100342.13;;;4.56;89.23
65394;BME280;52002;49.760;6.512;2023-12-20T07:08:48;100347.56;;;4.60;89.16
65394;BME280;52002;49.760;6.512;2023-12-20T07:11:13;100347.90;;;4.63;88.93
65394;BME280;52002;49.760;6.512;2023-12-20T07:13:38;100362.66;;;4.67;88.85
65394;BME280;52002;49.760;6.512;2023-12-20T07:16:04;100360.52;;;4.70;88.74
65394;BME280;52002;49.760;6.512;2023-12-20T07:18:29;100358.34;;;4.72;88.44
65394;BME280;52002;49.760;6.512;2023-12-20T07:20:55;100365.05;;;4.71;88.58
65394;BME280;52002;49.760;6.512;2023-12-20T07:23:20;100361.54;;;4.71;88.46
65394;BME280;52002;49.760;6.512;2023-12-20T07:25:46;100363.80;;;4.72;88.24
65394;BME280;52002;49.760;6.512;2023-12-20T07:28:12;100362.70;;;4.73;88.31
65394;BME280;52002;49.760;6.512;2023-12-20T07:30:37;100365.34;;;4.73;88.38
65394;BME280;52002;49.760;6.512;2023-12-20T07:33:03;100365.98;;;4.74;88.06
65394;BME280;52002;49.760;6.512;2023-12-20T07:35:29;100366.31;;;4.75;87.91
65394;BME280;52002;49.760;6.512;2023-12-20T07:37:54;100364.29;;;4.76;88.18
65394;BME280;52002;49.760;6.512;2023-12-20T07:40:19;100363.52;;;4.77;87.90
65394;BME280;52002;49.760;6.512;2023-12-20T07:42:45;100365.77;;;4.80;88.17
65394;BME280;52002;49.760;6.512;2023-12-20T07:45:10;100368.70;;;4.84;88.28
65394;BME280;52002;49.760;6.512;2023-12-20T07:47:37;100371.58;;;4.90;88.38
65394;BME280;52002;49.760;6.512;2023-12-20T07:50:02;100375.49;;;4.92;87.84
65394;BME280;52002;49.760;6.512;2023-12-20T07:52:29;100383.89;;;4.93;87.90
65394;BME280;52002;49.760;6.512;2023-12-20T07:54:54;100379.80;;;4.94;87.66
65394;BME280;52002;49.760;6.512;2023-12-20T07:57:20;100383.05;;;4.95;87.84
65394;BME280;52002;49.760;6.512;2023-12-20T07:59:46;100386.10;;;4.97;87.57
65394;BME280;52002;49.760;6.512;2023-12-20T08:02:11;100382.92;;;4.97;87.35
65394;BME280;52002;49.760;6.512;2023-12-20T08:04:37;100387.19;;;4.97;87.54
65394;BME280;52002;49.760;6.512;2023-12-20T08:07:03;100382.47;;;4.96;87.49
65394;BME280;52002;49.760;6.512;2023-12-20T08:09:28;100381.63;;;4.98;87.48
65394;BME280;52002;49.760;6.512;2023-12-20T08:11:54;100379.19;;;5.01;87.54
65394;BME280;52002;49.760;6.512;2023-12-20T08:14:19;100381.85;;;5.04;87.43
65394;BME280;52002;49.760;6.512;2023-12-20T08:16:44;100382.66;;;5.05;87.26
65394;BME280;52002;49.760;6.512;2023-12-20T08:19:10;100382.70;;;5.07;87.50
65394;BME280;52002;49.760;6.512;2023-12-20T08:21:35;100386.02;;;5.08;87.14
65394;BME280;52002;49.760;6.512;2023-12-20T08:24:00;100388.94;;;5.10;87.21
65394;BME280;52002;49.760;6.512;2023-12-20T08:26:26;100388.11;;;5.12;87.39
65394;BME280;52002;49.760;6.512;2023-12-20T08:28:52;100389.08;;;5.16;87.46
65394;BME280;52002;49.760;6.512;2023-12-20T08:31:18;100388.64;;;5.17;87.37
65394;BME280;52002;49.760;6.512;2023-12-20T08:33:45;100388.18;;;5.19;87.15
65394;BME280;52002;49.760;6.512;2023-12-20T08:36:11;100383.44;;;5.22;86.52
65394;BME280;52002;49.760;6.512;2023-12-20T08:38:36;100381.40;;;5.23;86.74
65394;BME280;52002;49.760;6.512;2023-12-20T08:41:02;100375.90;;;5.27;86.62
65394;BME280;52002;49.760;6.512;2023-12-20T08:43:31;100381.16;;;5.33;86.57
65394;BME280;52002;49.760;6.512;2023-12-20T08:45:56;100392.55;;;5.37;86.51
65394;BME280;52002;49.760;6.512;2023-12-20T08:48:22;100398.08;;;5.40;86.43
65394;BME280;52002;49.760;6.512;2023-12-20T08:50:47;100408.72;;;5.41;86.16
65394;BME280;52002;49.760;6.512;2023-12-20T08:53:15;100410.39;;;5.43;86.46
65394;BME280;52002;49.760;6.512;2023-12-20T08:55:41;100400.06;;;5.44;86.49
65394;BME280;52002;49.760;6.512;2023-12-20T08:58:07;100396.77;;;5.49;86.98
65394;BME280;52002;49.760;6.512;2023-12-20T09:00:33;100392.77;;;5.54;86.32
65394;BME280;52002;49.760;6.512;2023-12-20T09:02:59;100387.28;;;5.60;86.50
65394;BME280;52002;49.760;6.512;2023-12-20T09:05:25;100389.21;;;5.66;86.13
65394;BME280;52002;49.760;6.512;2023-12-20T09:07:50;100394.00;;;5.71;85.73
65394;BME280;52002;49.760;6.512;2023-12-20T09:10:16;100393.83;;;5.80;85.63
65394;BME280;52002;49.760;6.512;2023-12-20T09:12:41;100393.44;;;5.86;85.48
65394;BME280;52002;49.760;6.512;2023-12-20T09:15:07;100397.58;;;5.90;85.66
65394;BME280;52002;49.760;6.512;2023-12-20T09:17:33;100401.30;;;5.93;85.05
65394;BME280;52002;49.760;6.512;2023-12-20T09:19:58;100406.95;;;5.99;85.48
65394;BME280;52002;49.760;6.512;2023-12-20T09:22:25;100413.27;;;6.03;85.21
65394;BME280;52002;49.760;6.512;2023-12-20T09:24:51;100410.33;;;6.05;85.18
65394;BME280;52002;49.760;6.512;2023-12-20T09:27:16;100409.71;;;6.09;84.67
65394;BME280;52002;49.760;6.512;2023-12-20T09:29:42;100408.09;;;6.12;84.73
65394;BME280;52002;49.760;6.512;2023-12-20T09:32:07;100406.95;;;6.16;84.77
65394;BME280;52002;49.760;6.512;2023-12-20T09:34:33;100408.27;;;6.20;84.77
65394;BME280;52002;49.760;6.512;2023-12-20T09:36:58;100404.05;;;6.20;84.12
65394;BME280;52002;49.760;6.512;2023-12-20T09:39:24;100397.04;;;6.19;84.38
65394;BME280;52002;49.760;6.512;2023-12-20T09:42:03;100392.40;;;6.20;84.44
65394;BME280;52002;49.760;6.512;2023-12-20T09:44:30;100388.24;;;6.21;84.24
65394;BME280;52002;49.760;6.512;2023-12-20T09:46:57;100391.27;;;6.21;84.30
65394;BME280;52002;49.760;6.512;2023-12-20T09:49:23;100386.48;;;6.21;84.34
65394;BME280;52002;49.760;6.512;2023-12-20T09:51:50;100397.86;;;6.26;83.73
65394;BME280;52002;49.760;6.512;2023-12-20T09:54:17;100400.64;;;6.30;83.96
65394;BME280;52002;49.760;6.512;2023-12-20T09:56:44;100402.45;;;6.34;83.74
65394;BME280;52002;49.760;6.512;2023-12-20T09:59:09;100401.24;;;6.39;83.62
65394;BME280;52002;49.760;6.512;2023-12-20T10:01:35;100397.05;;;6.47;83.50
65394;BME280;52002;49.760;6.512;2023-12-20T10:04:06;100391.13;;;6.59;83.44
65394;BME280;52002;49.760;6.512;2023-12-20T10:06:36;100386.13;;;6.67;83.46
65394;BME280;52002;49.760;6.512;2023-12-20T10:09:02;100390.48;;;6.71;82.86
65394;BME280;52002;49.760;6.512;2023-12-20T10:11:27;100391.73;;;6.74;82.93
65394;BME280;52002;49.760;6.512;2023-12-20T10:13:59;100385.11;;;6.80;83.07
65394;BME280;52002;49.760;6.512;2023-12-20T10:16:28;100385.39;;;6.87;82.74
65394;BME280;52002;49.760;6.512;2023-12-20T10:18:54;100379.98;;;6.91;82.36
65394;BME280;52002;49.760;6.512;2023-12-20T10:21:21;100374.33;;;6.93;82.09
65394;BME280;52002;49.760;6.512;2023-12-20T10:23:48;100373.24;;;6.96;81.96
65394;BME280;52002;49.760;6.512;2023-12-20T10:26:35;100377.30;;;6.96;81.86
65394;BME280;52002;49.760;6.512;2023-12-20T10:29:01;100378.88;;;6.94;81.80
65394;BME280;52002;49.760;6.512;2023-12-20T10:31:31;100379.30;;;6.96;81.74
65394;BME280;52002;49.760;6.512;2023-12-20T10:33:58;100371.20;;;6.98;81.37
65394;BME280;52002;49.760;6.512;2023-12-20T10:36:31;100375.55;;;6.99;81.55
65394;BME280;52002;49.760;6.512;2023-12-20T10:38:57;100373.55;;;6.97;81.48
65394;BME280;52002;49.760;6.512;2023-12-20T10:41:28;100371.39;;;6.95;81.33
65394;BME280;52002;49.760;6.512;2023-12-20T10:44:04;100367.98;;;6.90;81.16
65394;BME280;52002;49.760;6.512;2023-12-20T10:46:33;100371.40;;;6.87;81.09
65394;BME280;52002;49.760;6.512;2023-12-20T10:49:02;100369.30;;;6.87;81.05
65394;BME280;52002;49.760;6.512;2023-12-20T10:51:27;100367.13;;;6.87;81.02
65394;BME280;52002;49.760;6.512;2023-12-20T10:53:55;100364.85;;;6.84;80.53
65394;BME280;52002;49.760;6.512;2023-12-20T10:56:22;100362.14;;;6.82;80.51
65394;BME280;52002;49.760;6.512;2023-12-20T10:58:49;100361.31;;;6.84;80.65
65394;BME280;52002;49.760;6.512;2023-12-20T11:01:16;100358.41;;;6.88;80.69
65394;BME280;52002;49.760;6.512;2023-12-20T11:03:51;100358.92;;;6.91;80.32
65394;BME280;52002;49.760;6.512;2023-12-20T11:06:40;100357.87;;;6.91;80.19
65394;BME280;52002;49.760;6.512;2023-12-20T11:17:09;100339.55;;;7.05;79.75
65394;BME280;52002;49.760;6.512;2023-12-20T11:22:22;100330.02;;;7.18;79.92
65394;BME280;52002;49.760;6.512;2023-12-20T11:24:48;100329.09;;;7.24;79.61
65394;BME280;52002;49.760;6.512;2023-12-20T11:27:14;100330.05;;;7.25;79.31
65394;BME280;52002;49.760;6.512;2023-12-20T11:29:40;100319.00;;;7.26;79.42
65394;BME280;52002;49.760;6.512;2023-12-20T11:34:58;100331.02;;;7.44;79.17
65394;BME280;52002;49.760;6.512;2023-12-20T11:37:31;100328.14;;;7.52;78.58
65394;BME280;52002;49.760;6.512;2023-12-20T11:40:08;100333.64;;;7.52;78.58
65394;BME280;52002;49.760;6.512;2023-12-20T11:42:40;100332.98;;;7.41;78.47
65394;BME280;52002;49.760;6.512;2023-12-20T11:45:13;100331.70;;;7.32;78.61
65394;BME280;52002;49.760;6.512;2023-12-20T11:47:40;100326.45;;;7.28;78.49
65394;BME280;52002;49.760;6.512;2023-12-20T11:50:06;100325.34;;;7.34;78.69
65394;BME280;52002;49.760;6.512;2023-12-20T11:52:32;100331.11;;;7.43;78.68
65394;BME280;52002;49.760;6.512;2023-12-20T11:54:57;100334.81;;;7.53;78.60
65394;BME280;52002;49.760;6.512;2023-12-20T11:57:22;100337.54;;;7.62;78.42
65394;BME280;52002;49.760;6.512;2023-12-20T11:59:48;100329.55;;;7.72;78.38
65394;BME280;52002;49.760;6.512;2023-12-20T12:02:14;100327.55;;;7.78;78.05
65394;BME280;52002;49.760;6.512;2023-12-20T12:04:43;100325.05;;;7.76;77.58
65394;BME280;52002;49.760;6.512;2023-12-20T12:07:08;100326.52;;;7.72;77.65
65394;BME280;52002;49.760;6.512;2023-12-20T12:09:34;100326.42;;;7.67;77.51
65394;BME280;52002;49.760;6.512;2023-12-20T12:12:00;100317.45;;;7.61;77.59
65394;BME280;52002;49.760;6.512;2023-12-20T12:14:25;100319.31;;;7.57;77.83
65394;BME280;52002;49.760;6.512;2023-12-20T12:16:51;100318.03;;;7.57;77.61
65394;BME280;52002;49.760;6.512;2023-12-20T12:19:25;100310.65;;;7.59;77.67
65394;BME280;52002;49.760;6.512;2023-12-20T12:22:10;100311.87;;;7.57;77.48
65394;BME280;52002;49.760;6.512;2023-12-20T12:24:47;100312.36;;;7.55;77.70
65394;BME280;52002;49.760;6.512;2023-12-20T12:27:13;100301.41;;;7.50;77.70
65394;BME280;52002;49.760;6.512;2023-12-20T12:29:39;100296.95;;;7.48;77.85
65394;BME280;52002;49.760;6.512;2023-12-20T12:32:07;100297.02;;;7.39;77.64
65394;BME280;52002;49.760;6.512;2023-12-20T12:34:33;100289.15;;;7.30;77.51
65394;BME280;52002;49.760;6.512;2023-12-20T12:37:03;100288.91;;;7.26;77.68
65394;BME280;52002;49.760;6.512;2023-12-20T12:39:29;100290.02;;;7.23;77.78
65394;BME280;52002;49.760;6.512;2023-12-20T12:41:55;100282.44;;;7.20;77.81
65394;BME280;52002;49.760;6.512;2023-12-20T12:44:22;100276.25;;;7.15;77.84
65394;BME280;52002;49.760;6.512;2023-12-20T12:46:50;100269.77;;;7.13;78.16
65394;BME280;52002;49.760;6.512;2023-12-20T12:49:16;100275.60;;;7.19;78.04
65394;BME280;52002;49.760;6.512;2023-12-20T12:51:42;100269.64;;;7.23;78.05
65394;BME280;52002;49.760;6.512;2023-12-20T12:54:09;100266.45;;;7.31;77.87
65394;BME280;52002;49.760;6.512;2023-12-20T12:56:35;100264.73;;;7.42;77.81
65394;BME280;52002;49.760;6.512;2023-12-20T12:59:01;100267.20;;;7.55;77.73
65394;BME280;52002;49.760;6.512;2023-12-20T13:01:27;100262.03;;;7.63;77.56
65394;BME280;52002;49.760;6.512;2023-12-20T13:03:52;100258.05;;;7.69;77.43
65394;BME280;52002;49.760;6.512;2023-12-20T13:06:18;100254.23;;;7.72;77.36
65394;BME280;52002;49.760;6.512;2023-12-20T13:08:43;100253.48;;;7.76;77.26